sensor_id;sensor_type;location;lat;lon;timestamp;P1;durP1;ratioP1;P2;durP2;ratioP2
41693;SDS011;27377;50.666;9.150;2024-03-25T00:01:08;5.43;;;1.50;;
41693;SDS011;27377;50.666;9.150;2024-03-25T00:03:52;8.30;;;1.83;;
41693;SDS011;27377;50.666;9.150;2024-03-25T00:06:36;4.80;;;1.60;;
41693;SDS011;27377;50.666;9.150;2024-03-25T00:09:20;6.60;;;2.05;;
41693;SDS011;27377;50.666;9.150;2024-03-25T00:12:04;5.47;;;2.05;;
41693;SDS011;27377;50.666;9.150;2024-03-25T00:14:49;7.07;;;2.10;;
41693;SDS011;27377;50.666;9.150;2024-03-25T00:17:33;7.30;;;2.13;;
41693;SDS011;27377;50.666;9.150;2024-03-25T00:20:18;6.85;;;2.00;;
41693;SDS011;27377;50.666;9.150;2024-03-25T00:23:02;9.05;;;2.30;;
41693;SDS011;27377;50.666;9.150;2024-03-25T00:25:47;9.48;;;2.47;;
41693;SDS011;27377;50.666;9.150;2024-03-25T00:28:31;6.88;;;2.30;;
41693;SDS011;27377;50.666;9.150;2024-03-25T00:31:15;6.95;;;2.20;;
41693;SDS011;27377;50.666;9.150;2024-03-25T00:33:59;6.13;;;2.10;;
41693;SDS011;27377;50.666;9.150;2024-03-25T00:36:43;7.30;;;2.08;;
41693;SDS011;27377;50.666;9.150;2024-03-25T00:39:27;9.67;;;2.33;;
41693;SDS011;27377;50.666;9.150;2024-03-25T00:42:11;8.32;;;2.47;;
41693;SDS011;27377;50.666;9.150;2024-03-25T00:44:55;9.80;;;2.30;;
41693;SDS011;27377;50.666;9.150;2024-03-25T00:47:39;7.05;;;2.40;;
41693;SDS011;27377;50.666;9.150;2024-03-25T00:50:23;8.35;;;2.75;;
41693;SDS011;27377;50.666;9.150;2024-03-25T00:53:07;9.18;;;2.53;;
41693;SDS011;27377;50.666;9.150;2024-03-25T00:55:51;6.40;;;2.27;;
41693;SDS011;27377;50.666;9.150;2024-03-25T00:58:35;9.07;;;2.70;;
41693;SDS011;27377;50.666;9.150;2024-03-25T01:01:19;8.20;;;2.40;;
41693;SDS011;27377;50.666;9.150;2024-03-25T01:04:03;7.20;;;2.30;;
41693;SDS011;27377;50.666;9.150;2024-03-25T01:06:48;7.88;;;2.42;;
41693;SDS011;27377;50.666;9.150;2024-03-25T01:09:32;7.23;;;2.43;;
41693;SDS011;27377;50.666;9.150;2024-03-25T01:12:16;6.07;;;2.45;;
41693;SDS011;27377;50.666;9.150;2024-03-25T01:15:00;7.82;;;2.45;;
41693;SDS011;27377;50.666;9.150;2024-03-25T01:17:46;6.70;;;2.10;;
41693;SDS011;27377;50.666;9.150;2024-03-25T01:20:30;8.90;;;2.58;;
41693;SDS011;27377;50.666;9.150;2024-03-25T01:23:14;6.83;;;2.27;;
41693;SDS011;27377;50.666;9.150;2024-03-25T01:25:58;5.70;;;2.00;;
41693;SDS011;27377;50.666;9.150;2024-03-25T01:28:43;8.32;;;2.38;;
41693;SDS011;27377;50.666;9.150;2024-03-25T01:31:27;7.90;;;2.50;;
41693;SDS011;27377;50.666;9.150;2024-03-25T01:34:11;7.70;;;2.47;;
41693;SDS011;27377;50.666;9.150;2024-03-25T01:36:55;10.40;;;2.70;;
41693;SDS011;27377;50.666;9.150;2024-03-25T01:39:40;8.20;;;2.40;;
41693;SDS011;27377;50.666;9.150;2024-03-25T01:42:24;7.65;;;2.50;;
41693;SDS011;27377;50.666;9.150;2024-03-25T01:45:08;10.63;;;2.60;;
41693;SDS011;27377;50.666;9.150;2024-03-25T01:47:53;7.03;;;2.15;;
41693;SDS011;27377;50.666;9.150;2024-03-25T01:50:39;8.45;;;2.33;;
41693;SDS011;27377;50.666;9.150;2024-03-25T01:53:27;7.55;;;2.40;;
41693;SDS011;27377;50.666;9.150;2024-03-25T01:56:13;9.00;;;2.60;;
41693;SDS011;27377;50.666;9.150;2024-03-25T01:58:59;8.10;;;2.60;;
41693;SDS011;27377;50.666;9.150;2024-03-25T02:01:44;8.88;;;2.45;;
41693;SDS011;27377;50.666;9.150;2024-03-25T02:04:29;7.90;;;2.55;;
41693;SDS011;27377;50.666;9.150;2024-03-25T02:07:14;11.00;;;2.90;;
41693;SDS011;27377;50.666;9.150;2024-03-25T02:09:59;7.22;;;2.42;;
41693;SDS011;27377;50.666;9.150;2024-03-25T02:12:45;9.70;;;2.83;;
41693;SDS011;27377;50.666;9.150;2024-03-25T02:15:29;10.48;;;2.42;;
41693;SDS011;27377;50.666;9.150;2024-03-25T02:18:13;7.80;;;2.60;;
41693;SDS011;27377;50.666;9.150;2024-03-25T02:21:00;10.10;;;2.80;;
41693;SDS011;27377;50.666;9.150;2024-03-25T02:23:44;7.90;;;2.58;;
41693;SDS011;27377;50.666;9.150;2024-03-25T02:26:30;8.52;;;2.60;;
41693;SDS011;27377;50.666;9.150;2024-03-25T02:29:14;9.07;;;2.70;;
41693;SDS011;27377;50.666;9.150;2024-03-25T02:31:58;8.18;;;2.40;;
41693;SDS011;27377;50.666;9.150;2024-03-25T02:34:43;7.45;;;2.50;;
41693;SDS011;27377;50.666;9.150;2024-03-25T02:37:30;8.50;;;2.42;;
41693;SDS011;27377;50.666;9.150;2024-03-25T02:40:14;10.40;;;2.70;;
41693;SDS011;27377;50.666;9.150;2024-03-25T02:42:58;7.95;;;2.67;;
41693;SDS011;27377;50.666;9.150;2024-03-25T02:45:43;12.38;;;2.67;;
41693;SDS011;27377;50.666;9.150;2024-03-25T02:48:27;8.77;;;2.85;;
41693;SDS011;27377;50.666;9.150;2024-03-25T02:51:11;7.93;;;2.50;;
41693;SDS011;27377;50.666;9.150;2024-03-25T02:53:55;9.03;;;2.60;;
41693;SDS011;27377;50.666;9.150;2024-03-25T02:56:39;9.25;;;2.60;;
41693;SDS011;27377;50.666;9.150;2024-03-25T02:59:24;9.75;;;2.55;;
41693;SDS011;27377;50.666;9.150;2024-03-25T03:02:08;9.32;;;2.90;;
41693;SDS011;27377;50.666;9.150;2024-03-25T03:04:52;9.87;;;2.77;;
41693;SDS011;27377;50.666;9.150;2024-03-25T03:07:36;12.75;;;3.22;;
41693;SDS011;27377;50.666;9.150;2024-03-25T03:10:20;10.68;;;2.80;;
41693;SDS011;27377;50.666;9.150;2024-03-25T03:13:04;9.90;;;2.83;;
41693;SDS011;27377;50.666;9.150;2024-03-25T03:15:48;9.30;;;3.00;;
41693;SDS011;27377;50.666;9.150;2024-03-25T03:18:32;7.43;;;3.05;;
41693;SDS011;27377;50.666;9.150;2024-03-25T03:21:16;10.23;;;3.25;;
41693;SDS011;27377;50.666;9.150;2024-03-25T03:24:00;10.53;;;2.77;;
41693;SDS011;27377;50.666;9.150;2024-03-25T03:26:44;10.32;;;2.90;;
41693;SDS011;27377;50.666;9.150;2024-03-25T03:29:28;11.27;;;3.40;;
41693;SDS011;27377;50.666;9.150;2024-03-25T03:32:13;7.97;;;3.00;;
41693;SDS011;27377;50.666;9.150;2024-03-25T03:34:57;10.13;;;2.90;;
41693;SDS011;27377;50.666;9.150;2024-03-25T03:37:41;11.98;;;3.17;;
41693;SDS011;27377;50.666;9.150;2024-03-25T03:40:26;10.98;;;3.05;;
41693;SDS011;27377;50.666;9.150;2024-03-25T03:43:10;8.90;;;2.90;;
41693;SDS011;27377;50.666;9.150;2024-03-25T03:45:54;8.38;;;2.50;;
41693;SDS011;27377;50.666;9.150;2024-03-25T03:48:39;10.63;;;3.22;;
41693;SDS011;27377;50.666;9.150;2024-03-25T03:51:23;10.68;;;3.38;;
41693;SDS011;27377;50.666;9.150;2024-03-25T03:54:07;10.52;;;2.90;;
41693;SDS011;27377;50.666;9.150;2024-03-25T03:56:51;8.83;;;3.00;;
41693;SDS011;27377;50.666;9.150;2024-03-25T03:59:35;11.27;;;3.08;;
41693;SDS011;27377;50.666;9.150;2024-03-25T04:02:20;10.47;;;2.93;;
41693;SDS011;27377;50.666;9.150;2024-03-25T04:05:04;12.15;;;3.25;;
41693;SDS011;27377;50.666;9.150;2024-03-25T04:07:49;10.20;;;3.00;;
41693;SDS011;27377;50.666;9.150;2024-03-25T04:10:33;10.27;;;3.05;;
41693;SDS011;27377;50.666;9.150;2024-03-25T04:13:17;12.53;;;2.80;;
41693;SDS011;27377;50.666;9.150;2024-03-25T04:16:01;11.30;;;3.20;;
41693;SDS011;27377;50.666;9.150;2024-03-25T04:18:47;13.65;;;3.30;;
41693;SDS011;27377;50.666;9.150;2024-03-25T04:21:32;10.68;;;3.03;;
41693;SDS011;27377;50.666;9.150;2024-03-25T04:24:16;11.13;;;3.17;;
41693;SDS011;27377;50.666;9.150;2024-03-25T04:27:01;11.37;;;2.70;;
41693;SDS011;27377;50.666;9.150;2024-03-25T04:29:46;11.32;;;3.00;;
41693;SDS011;27377;50.666;9.150;2024-03-25T04:32:30;10.05;;;2.90;;
41693;SDS011;27377;50.666;9.150;2024-03-25T04:35:14;12.80;;;3.15;;
41693;SDS011;27377;50.666;9.150;2024-03-25T04:37:58;11.05;;;3.05;;
41693;SDS011;27377;50.666;9.150;2024-03-25T04:40:43;11.05;;;2.92;;
41693;SDS011;27377;50.666;9.150;2024-03-25T04:43:27;9.55;;;2.95;;
41693;SDS011;27377;50.666;9.150;2024-03-25T04:46:11;13.00;;;3.00;;
41693;SDS011;27377;50.666;9.150;2024-03-25T04:48:55;10.02;;;2.95;;
41693;SDS011;27377;50.666;9.150;2024-03-25T04:51:40;13.05;;;2.97;;
41693;SDS011;27377;50.666;9.150;2024-03-25T04:54:24;14.55;;;3.53;;
41693;SDS011;27377;50.666;9.150;2024-03-25T04:57:09;16.37;;;3.40;;
41693;SDS011;27377;50.666;9.150;2024-03-25T04:59:53;10.52;;;2.85;;
41693;SDS011;27377;50.666;9.150;2024-03-25T05:02:37;11.93;;;2.90;;
41693;SDS011;27377;50.666;9.150;2024-03-25T05:05:22;11.65;;;3.05;;
41693;SDS011;27377;50.666;9.150;2024-03-25T05:08:07;9.93;;;2.80;;
41693;SDS011;27377;50.666;9.150;2024-03-25T05:10:55;9.82;;;3.25;;
41693;SDS011;27377;50.666;9.150;2024-03-25T05:13:40;10.63;;;3.13;;
41693;SDS011;27377;50.666;9.150;2024-03-25T05:16:30;16.77;;;3.33;;
41693;SDS011;27377;50.666;9.150;2024-03-25T05:19:14;12.13;;;3.20;;
41693;SDS011;27377;50.666;9.150;2024-03-25T05:21:58;9.10;;;3.00;;
41693;SDS011;27377;50.666;9.150;2024-03-25T05:24:45;10.40;;;3.20;;
41693;SDS011;27377;50.666;9.150;2024-03-25T05:27:30;12.20;;;2.70;;
41693;SDS011;27377;50.666;9.150;2024-03-25T05:30:14;11.18;;;3.00;;
41693;SDS011;27377;50.666;9.150;2024-03-25T05:32:58;10.40;;;2.92;;
41693;SDS011;27377;50.666;9.150;2024-03-25T05:35:42;10.30;;;3.00;;
41693;SDS011;27377;50.666;9.150;2024-03-25T05:38:27;11.48;;;2.90;;
41693;SDS011;27377;50.666;9.150;2024-03-25T05:41:12;12.73;;;3.07;;
41693;SDS011;27377;50.666;9.150;2024-03-25T05:43:56;16.50;;;3.33;;
41693;SDS011;27377;50.666;9.150;2024-03-25T05:46:40;13.13;;;2.93;;
41693;SDS011;27377;50.666;9.150;2024-03-25T05:49:24;11.35;;;2.75;;
41693;SDS011;27377;50.666;9.150;2024-03-25T05:52:08;11.90;;;3.03;;
41693;SDS011;27377;50.666;9.150;2024-03-25T05:54:52;13.30;;;3.53;;
41693;SDS011;27377;50.666;9.150;2024-03-25T05:57:36;9.63;;;2.90;;
41693;SDS011;27377;50.666;9.150;2024-03-25T06:00:20;13.85;;;3.70;;
41693;SDS011;27377;50.666;9.150;2024-03-25T06:03:04;13.82;;;3.67;;
41693;SDS011;27377;50.666;9.150;2024-03-25T06:05:49;14.15;;;3.63;;
41693;SDS011;27377;50.666;9.150;2024-03-25T06:08:33;14.32;;;3.78;;
41693;SDS011;27377;50.666;9.150;2024-03-25T06:11:17;15.57;;;3.90;;
41693;SDS011;27377;50.666;9.150;2024-03-25T06:14:01;14.23;;;3.40;;
41693;SDS011;27377;50.666;9.150;2024-03-25T06:16:46;12.07;;;3.50;;
41693;SDS011;27377;50.666;9.150;2024-03-25T06:19:30;14.70;;;3.33;;
41693;SDS011;27377;50.666;9.150;2024-03-25T06:22:14;15.65;;;3.85;;
41693;SDS011;27377;50.666;9.150;2024-03-25T06:24:58;13.35;;;3.20;;
41693;SDS011;27377;50.666;9.150;2024-03-25T06:27:43;14.77;;;3.20;;
41693;SDS011;27377;50.666;9.150;2024-03-25T06:30:27;14.35;;;3.65;;
41693;SDS011;27377;50.666;9.150;2024-03-25T06:33:30;15.30;;;3.70;;
41693;SDS011;27377;50.666;9.150;2024-03-25T06:36:34;14.35;;;3.55;;
41693;SDS011;27377;50.666;9.150;2024-03-25T06:39:18;12.45;;;3.67;;
41693;SDS011;27377;50.666;9.150;2024-03-25T06:42:02;15.68;;;3.60;;
41693;SDS011;27377;50.666;9.150;2024-03-25T06:44:47;14.52;;;3.40;;
41693;SDS011;27377;50.666;9.150;2024-03-25T06:47:34;14.65;;;3.90;;
41693;SDS011;27377;50.666;9.150;2024-03-25T06:50:18;14.48;;;3.55;;
41693;SDS011;27377;50.666;9.150;2024-03-25T06:53:02;11.90;;;3.50;;
41693;SDS011;27377;50.666;9.150;2024-03-25T06:55:52;13.38;;;4.00;;
41693;SDS011;27377;50.666;9.150;2024-03-25T06:58:41;12.25;;;3.25;;
41693;SDS011;27377;50.666;9.150;2024-03-25T07:01:25;13.38;;;3.45;;
41693;SDS011;27377;50.666;9.150;2024-03-25T07:04:09;13.48;;;3.20;;
41693;SDS011;27377;50.666;9.150;2024-03-25T07:06:53;15.10;;;3.40;;
41693;SDS011;27377;50.666;9.150;2024-03-25T07:09:37;13.05;;;3.17;;
41693;SDS011;27377;50.666;9.150;2024-03-25T07:12:21;16.42;;;3.65;;
41693;SDS011;27377;50.666;9.150;2024-03-25T07:15:05;14.65;;;3.45;;
41693;SDS011;27377;50.666;9.150;2024-03-25T07:17:49;12.35;;;3.40;;
41693;SDS011;27377;50.666;9.150;2024-03-25T07:20:33;14.70;;;3.35;;
41693;SDS011;27377;50.666;9.150;2024-03-25T07:23:17;12.20;;;3.42;;
41693;SDS011;27377;50.666;9.150;2024-03-25T07:26:01;15.32;;;3.33;;
41693;SDS011;27377;50.666;9.150;2024-03-25T07:28:46;12.40;;;3.05;;
41693;SDS011;27377;50.666;9.150;2024-03-25T07:31:31;15.65;;;3.40;;
41693;SDS011;27377;50.666;9.150;2024-03-25T07:34:14;13.20;;;3.25;;
41693;SDS011;27377;50.666;9.150;2024-03-25T07:36:58;12.05;;;3.40;;
41693;SDS011;27377;50.666;9.150;2024-03-25T07:39:42;12.93;;;2.97;;
41693;SDS011;27377;50.666;9.150;2024-03-25T07:42:29;13.30;;;3.08;;
41693;SDS011;27377;50.666;9.150;2024-03-25T07:45:13;12.32;;;3.75;;
41693;SDS011;27377;50.666;9.150;2024-03-25T07:47:58;10.32;;;3.10;;
41693;SDS011;27377;50.666;9.150;2024-03-25T07:50:42;11.30;;;3.33;;
41693;SDS011;27377;50.666;9.150;2024-03-25T07:53:26;11.43;;;3.38;;
41693;SDS011;27377;50.666;9.150;2024-03-25T07:56:09;12.95;;;3.20;;
41693;SDS011;27377;50.666;9.150;2024-03-25T07:58:54;10.57;;;2.60;;
41693;SDS011;27377;50.666;9.150;2024-03-25T08:01:38;10.90;;;2.85;;
41693;SDS011;27377;50.666;9.150;2024-03-25T08:04:22;11.15;;;2.92;;
41693;SDS011;27377;50.666;9.150;2024-03-25T08:07:06;10.10;;;2.90;;
41693;SDS011;27377;50.666;9.150;2024-03-25T08:09:51;10.10;;;2.38;;
41693;SDS011;27377;50.666;9.150;2024-03-25T08:12:34;8.73;;;2.22;;
41693;SDS011;27377;50.666;9.150;2024-03-25T08:15:19;9.75;;;2.60;;
41693;SDS011;27377;50.666;9.150;2024-03-25T08:18:02;12.02;;;2.70;;
41693;SDS011;27377;50.666;9.150;2024-03-25T08:20:48;8.20;;;2.30;;
41693;SDS011;27377;50.666;9.150;2024-03-25T08:23:32;8.88;;;2.30;;
41693;SDS011;27377;50.666;9.150;2024-03-25T08:26:16;9.45;;;2.42;;
41693;SDS011;27377;50.666;9.150;2024-03-25T08:29:00;12.48;;;3.33;;
41693;SDS011;27377;50.666;9.150;2024-03-25T08:31:44;11.48;;;2.92;;
41693;SDS011;27377;50.666;9.150;2024-03-25T08:34:29;11.40;;;2.30;;
41693;SDS011;27377;50.666;9.150;2024-03-25T08:37:13;10.93;;;2.70;;
41693;SDS011;27377;50.666;9.150;2024-03-25T08:39:57;10.02;;;2.47;;
41693;SDS011;27377;50.666;9.150;2024-03-25T08:42:41;9.95;;;2.20;;
41693;SDS011;27377;50.666;9.150;2024-03-25T08:45:25;7.97;;;2.33;;
41693;SDS011;27377;50.666;9.150;2024-03-25T08:48:10;9.20;;;2.17;;
41693;SDS011;27377;50.666;9.150;2024-03-25T08:50:54;13.15;;;2.42;;
41693;SDS011;27377;50.666;9.150;2024-03-25T08:53:38;9.77;;;2.30;;
41693;SDS011;27377;50.666;9.150;2024-03-25T08:56:22;9.15;;;2.30;;
41693;SDS011;27377;50.666;9.150;2024-03-25T08:59:06;10.30;;;2.28;;
41693;SDS011;27377;50.666;9.150;2024-03-25T09:01:53;9.73;;;2.40;;
41693;SDS011;27377;50.666;9.150;2024-03-25T09:04:37;10.73;;;2.53;;
41693;SDS011;27377;50.666;9.150;2024-03-25T09:07:22;11.00;;;2.58;;
41693;SDS011;27377;50.666;9.150;2024-03-25T09:10:06;12.77;;;2.80;;
41693;SDS011;27377;50.666;9.150;2024-03-25T09:13:09;12.50;;;2.80;;
41693;SDS011;27377;50.666;9.150;2024-03-25T09:15:54;11.75;;;3.78;;
41693;SDS011;27377;50.666;9.150;2024-03-25T09:18:38;11.98;;;2.90;;
41693;SDS011;27377;50.666;9.150;2024-03-25T09:21:22;11.32;;;2.90;;
41693;SDS011;27377;50.666;9.150;2024-03-25T09:24:07;11.10;;;3.30;;
41693;SDS011;27377;50.666;9.150;2024-03-25T09:26:52;10.27;;;3.20;;
41693;SDS011;27377;50.666;9.150;2024-03-25T09:29:36;8.40;;;2.70;;
41693;SDS011;27377;50.666;9.150;2024-03-25T09:32:20;9.50;;;2.78;;
41693;SDS011;27377;50.666;9.150;2024-03-25T09:35:04;8.10;;;2.65;;
41693;SDS011;27377;50.666;9.150;2024-03-25T09:37:49;9.30;;;2.72;;
41693;SDS011;27377;50.666;9.150;2024-03-25T09:40:36;8.80;;;2.70;;
41693;SDS011;27377;50.666;9.150;2024-03-25T09:43:24;10.00;;;2.80;;
41693;SDS011;27377;50.666;9.150;2024-03-25T09:46:12;10.87;;;2.77;;
41693;SDS011;27377;50.666;9.150;2024-03-25T09:48:56;7.70;;;2.35;;
41693;SDS011;27377;50.666;9.150;2024-03-25T09:51:40;10.90;;;2.63;;
41693;SDS011;27377;50.666;9.150;2024-03-25T09:54:24;8.38;;;2.50;;
41693;SDS011;27377;50.666;9.150;2024-03-25T09:57:09;10.07;;;2.67;;
41693;SDS011;27377;50.666;9.150;2024-03-25T09:59:53;9.57;;;2.90;;
41693;SDS011;27377;50.666;9.150;2024-03-25T10:02:38;10.32;;;2.30;;
41693;SDS011;27377;50.666;9.150;2024-03-25T10:05:24;7.97;;;2.10;;
41693;SDS011;27377;50.666;9.150;2024-03-25T10:08:08;12.25;;;2.80;;
41693;SDS011;27377;50.666;9.150;2024-03-25T10:10:54;8.65;;;2.30;;
41693;SDS011;27377;50.666;9.150;2024-03-25T10:13:42;8.77;;;2.17;;
41693;SDS011;27377;50.666;9.150;2024-03-25T10:16:26;7.55;;;2.10;;
41693;SDS011;27377;50.666;9.150;2024-03-25T10:19:10;8.15;;;2.40;;
41693;SDS011;27377;50.666;9.150;2024-03-25T10:22:04;8.43;;;2.37;;
41693;SDS011;27377;50.666;9.150;2024-03-25T10:24:51;8.77;;;2.42;;
41693;SDS011;27377;50.666;9.150;2024-03-25T10:27:35;10.13;;;2.67;;
41693;SDS011;27377;50.666;9.150;2024-03-25T10:30:19;10.27;;;2.58;;
41693;SDS011;27377;50.666;9.150;2024-03-25T10:33:04;11.15;;;2.45;;
41693;SDS011;27377;50.666;9.150;2024-03-25T10:35:49;10.15;;;2.50;;
41693;SDS011;27377;50.666;9.150;2024-03-25T10:38:34;10.20;;;2.38;;
41693;SDS011;27377;50.666;9.150;2024-03-25T10:41:20;8.50;;;2.13;;
41693;SDS011;27377;50.666;9.150;2024-03-25T10:44:05;8.63;;;2.10;;
41693;SDS011;27377;50.666;9.150;2024-03-25T10:46:52;9.10;;;2.22;;
41693;SDS011;27377;50.666;9.150;2024-03-25T10:49:49;8.48;;;2.15;;
41693;SDS011;27377;50.666;9.150;2024-03-25T10:52:35;7.68;;;2.30;;
41693;SDS011;27377;50.666;9.150;2024-03-25T10:55:21;9.88;;;2.20;;
41693;SDS011;27377;50.666;9.150;2024-03-25T10:58:05;9.85;;;2.25;;
41693;SDS011;27377;50.666;9.150;2024-03-25T11:00:51;10.30;;;2.50;;
41693;SDS011;27377;50.666;9.150;2024-03-25T11:03:39;10.30;;;2.50;;
41693;SDS011;27377;50.666;9.150;2024-03-25T11:06:24;11.27;;;2.45;;
41693;SDS011;27377;50.666;9.150;2024-03-25T11:09:08;11.55;;;2.88;;
41693;SDS011;27377;50.666;9.150;2024-03-25T11:11:52;10.07;;;2.33;;
41693;SDS011;27377;50.666;9.150;2024-03-25T11:14:37;8.95;;;2.50;;
41693;SDS011;27377;50.666;9.150;2024-03-25T11:17:22;11.23;;;2.40;;
41693;SDS011;27377;50.666;9.150;2024-03-25T11:20:09;11.87;;;2.87;;
41693;SDS011;27377;50.666;9.150;2024-03-25T11:22:54;10.73;;;2.30;;
41693;SDS011;27377;50.666;9.150;2024-03-25T11:25:38;7.80;;;2.35;;
41693;SDS011;27377;50.666;9.150;2024-03-25T11:28:30;9.13;;;2.17;;
41693;SDS011;27377;50.666;9.150;2024-03-25T11:31:14;8.25;;;2.17;;
41693;SDS011;27377;50.666;9.150;2024-03-25T11:34:05;8.57;;;2.20;;
41693;SDS011;27377;50.666;9.150;2024-03-25T11:36:52;5.95;;;2.10;;
41693;SDS011;27377;50.666;9.150;2024-03-25T11:39:40;8.25;;;2.25;;
41693;SDS011;27377;50.666;9.150;2024-03-25T11:42:24;8.02;;;2.20;;
41693;SDS011;27377;50.666;9.150;2024-03-25T11:45:09;9.40;;;2.42;;
41693;SDS011;27377;50.666;9.150;2024-03-25T11:47:59;7.87;;;2.20;;
41693;SDS011;27377;50.666;9.150;2024-03-25T11:50:46;10.25;;;2.40;;
41693;SDS011;27377;50.666;9.150;2024-03-25T11:53:31;13.07;;;2.72;;
41693;SDS011;27377;50.666;9.150;2024-03-25T11:56:15;10.40;;;2.50;;
41693;SDS011;27377;50.666;9.150;2024-03-25T11:58:59;8.50;;;2.28;;
41693;SDS011;27377;50.666;9.150;2024-03-25T12:01:44;9.77;;;2.30;;
41693;SDS011;27377;50.666;9.150;2024-03-25T12:04:28;7.50;;;2.20;;
41693;SDS011;27377;50.666;9.150;2024-03-25T12:07:13;9.73;;;2.22;;
41693;SDS011;27377;50.666;9.150;2024-03-25T12:09:57;7.53;;;2.13;;
41693;SDS011;27377;50.666;9.150;2024-03-25T12:13:00;8.33;;;2.27;;
41693;SDS011;27377;50.666;9.150;2024-03-25T12:15:44;8.32;;;2.28;;
41693;SDS011;27377;50.666;9.150;2024-03-25T12:18:28;7.77;;;2.20;;
41693;SDS011;27377;50.666;9.150;2024-03-25T12:21:13;7.82;;;2.13;;
41693;SDS011;27377;50.666;9.150;2024-03-25T12:23:57;6.27;;;2.00;;
41693;SDS011;27377;50.666;9.150;2024-03-25T12:26:43;7.63;;;2.20;;
41693;SDS011;27377;50.666;9.150;2024-03-25T12:29:27;7.65;;;2.13;;
41693;SDS011;27377;50.666;9.150;2024-03-25T12:32:11;10.53;;;2.20;;
41693;SDS011;27377;50.666;9.150;2024-03-25T12:34:55;6.82;;;2.38;;
41693;SDS011;27377;50.666;9.150;2024-03-25T12:37:44;9.57;;;2.37;;
41693;SDS011;27377;50.666;9.150;2024-03-25T12:40:29;7.45;;;2.25;;
41693;SDS011;27377;50.666;9.150;2024-03-25T12:43:16;8.40;;;2.58;;
41693;SDS011;27377;50.666;9.150;2024-03-25T12:46:01;9.60;;;2.65;;
41693;SDS011;27377;50.666;9.150;2024-03-25T12:48:49;8.43;;;2.08;;
41693;SDS011;27377;50.666;9.150;2024-03-25T12:51:33;9.52;;;2.13;;
41693;SDS011;27377;50.666;9.150;2024-03-25T12:54:18;10.30;;;2.53;;
41693;SDS011;27377;50.666;9.150;2024-03-25T12:57:02;11.27;;;2.50;;
41693;SDS011;27377;50.666;9.150;2024-03-25T12:59:46;9.27;;;2.30;;
41693;SDS011;27377;50.666;9.150;2024-03-25T13:02:30;8.73;;;2.03;;
41693;SDS011;27377;50.666;9.150;2024-03-25T13:05:15;7.25;;;2.00;;
41693;SDS011;27377;50.666;9.150;2024-03-25T13:07:59;9.93;;;2.50;;
41693;SDS011;27377;50.666;9.150;2024-03-25T13:10:43;8.50;;;2.40;;
41693;SDS011;27377;50.666;9.150;2024-03-25T13:13:27;8.30;;;2.08;;
41693;SDS011;27377;50.666;9.150;2024-03-25T13:16:12;9.00;;;2.10;;
41693;SDS011;27377;50.666;9.150;2024-03-25T13:18:56;7.30;;;2.13;;
41693;SDS011;27377;50.666;9.150;2024-03-25T13:21:40;9.45;;;2.33;;
41693;SDS011;27377;50.666;9.150;2024-03-25T13:24:31;7.25;;;1.98;;
41693;SDS011;27377;50.666;9.150;2024-03-25T13:27:16;7.85;;;2.33;;
41693;SDS011;27377;50.666;9.150;2024-03-25T13:30:00;8.05;;;2.00;;
41693;SDS011;27377;50.666;9.150;2024-03-25T13:32:44;8.90;;;2.10;;
41693;SDS011;27377;50.666;9.150;2024-03-25T13:35:31;6.95;;;1.88;;
41693;SDS011;27377;50.666;9.150;2024-03-25T13:38:17;6.32;;;1.80;;
41693;SDS011;27377;50.666;9.150;2024-03-25T13:41:02;7.30;;;1.75;;
41693;SDS011;27377;50.666;9.150;2024-03-25T13:43:48;6.95;;;2.13;;
41693;SDS011;27377;50.666;9.150;2024-03-25T13:46:33;7.47;;;2.20;;
41693;SDS011;27377;50.666;9.150;2024-03-25T13:49:17;7.10;;;2.08;;
41693;SDS011;27377;50.666;9.150;2024-03-25T13:52:04;6.97;;;2.07;;
41693;SDS011;27377;50.666;9.150;2024-03-25T13:54:49;9.00;;;2.10;;
41693;SDS011;27377;50.666;9.150;2024-03-25T13:57:33;9.43;;;2.00;;
41693;SDS011;27377;50.666;9.150;2024-03-25T14:00:18;7.10;;;1.80;;
41693;SDS011;27377;50.666;9.150;2024-03-25T14:03:04;7.60;;;1.95;;
41693;SDS011;27377;50.666;9.150;2024-03-25T14:05:48;8.53;;;2.00;;
41693;SDS011;27377;50.666;9.150;2024-03-25T14:08:36;8.73;;;1.65;;
41693;SDS011;27377;50.666;9.150;2024-03-25T14:11:20;8.68;;;2.05;;
41693;SDS011;27377;50.666;9.150;2024-03-25T14:14:05;8.80;;;2.00;;
41693;SDS011;27377;50.666;9.150;2024-03-25T14:16:52;6.93;;;1.88;;
41693;SDS011;27377;50.666;9.150;2024-03-25T14:19:36;7.50;;;1.80;;
41693;SDS011;27377;50.666;9.150;2024-03-25T14:22:20;6.80;;;1.60;;
41693;SDS011;27377;50.666;9.150;2024-03-25T14:25:05;7.13;;;1.75;;
41693;SDS011;27377;50.666;9.150;2024-03-25T14:27:50;7.13;;;1.80;;
41693;SDS011;27377;50.666;9.150;2024-03-25T14:30:35;8.40;;;2.03;;
41693;SDS011;27377;50.666;9.150;2024-03-25T14:33:19;7.68;;;1.65;;
41693;SDS011;27377;50.666;9.150;2024-03-25T14:36:03;7.73;;;1.97;;
41693;SDS011;27377;50.666;9.150;2024-03-25T14:38:51;7.95;;;2.00;;
41693;SDS011;27377;50.666;9.150;2024-03-25T14:41:39;8.25;;;2.10;;
41693;SDS011;27377;50.666;9.150;2024-03-25T14:44:24;7.47;;;2.70;;
41693;SDS011;27377;50.666;9.150;2024-03-25T14:47:08;12.25;;;3.80;;
41693;SDS011;27377;50.666;9.150;2024-03-25T14:49:52;8.82;;;3.10;;
41693;SDS011;27377;50.666;9.150;2024-03-25T14:52:37;8.73;;;2.90;;
41693;SDS011;27377;50.666;9.150;2024-03-25T14:55:23;9.40;;;3.17;;
41693;SDS011;27377;50.666;9.150;2024-03-25T14:58:08;9.98;;;4.00;;
41693;SDS011;27377;50.666;9.150;2024-03-25T15:00:53;8.93;;;2.92;;
41693;SDS011;27377;50.666;9.150;2024-03-25T15:03:37;10.00;;;3.40;;
41693;SDS011;27377;50.666;9.150;2024-03-25T15:06:22;8.13;;;2.88;;
41693;SDS011;27377;50.666;9.150;2024-03-25T15:09:06;10.05;;;3.40;;
41693;SDS011;27377;50.666;9.150;2024-03-25T15:11:51;10.75;;;3.05;;
41693;SDS011;27377;50.666;9.150;2024-03-25T15:14:35;6.88;;;2.15;;
41693;SDS011;27377;50.666;9.150;2024-03-25T15:17:20;8.40;;;2.70;;
41693;SDS011;27377;50.666;9.150;2024-03-25T15:20:05;8.10;;;2.17;;
41693;SDS011;27377;50.666;9.150;2024-03-25T15:22:50;10.65;;;2.60;;
41693;SDS011;27377;50.666;9.150;2024-03-25T15:25:34;8.07;;;2.40;;
41693;SDS011;27377;50.666;9.150;2024-03-25T15:28:18;9.25;;;2.92;;
41693;SDS011;27377;50.666;9.150;2024-03-25T15:31:03;7.82;;;2.75;;
41693;SDS011;27377;50.666;9.150;2024-03-25T15:33:47;10.23;;;2.60;;
41693;SDS011;27377;50.666;9.150;2024-03-25T15:36:31;7.22;;;2.17;;
41693;SDS011;27377;50.666;9.150;2024-03-25T15:39:17;7.80;;;2.40;;
41693;SDS011;27377;50.666;9.150;2024-03-25T15:42:04;6.57;;;2.00;;
41693;SDS011;27377;50.666;9.150;2024-03-25T15:44:50;7.13;;;1.97;;
41693;SDS011;27377;50.666;9.150;2024-03-25T15:47:36;9.07;;;2.15;;
41693;SDS011;27377;50.666;9.150;2024-03-25T15:50:21;7.63;;;2.03;;
41693;SDS011;27377;50.666;9.150;2024-03-25T15:53:06;9.05;;;1.60;;
41693;SDS011;27377;50.666;9.150;2024-03-25T15:55:50;7.50;;;2.30;;
41693;SDS011;27377;50.666;9.150;2024-03-25T15:58:35;7.40;;;1.88;;
41693;SDS011;27377;50.666;9.150;2024-03-25T16:01:19;5.73;;;1.97;;
41693;SDS011;27377;50.666;9.150;2024-03-25T16:04:03;6.22;;;2.00;;
41693;SDS011;27377;50.666;9.150;2024-03-25T16:06:48;10.48;;;2.03;;
41693;SDS011;27377;50.666;9.150;2024-03-25T16:09:32;7.80;;;1.83;;
41693;SDS011;27377;50.666;9.150;2024-03-25T16:12:16;7.50;;;1.85;;
41693;SDS011;27377;50.666;9.150;2024-03-25T16:15:00;8.63;;;2.43;;
41693;SDS011;27377;50.666;9.150;2024-03-25T16:17:44;7.95;;;1.90;;
41693;SDS011;27377;50.666;9.150;2024-03-25T16:20:31;7.05;;;1.95;;
41693;SDS011;27377;50.666;9.150;2024-03-25T16:23:16;7.85;;;1.90;;
41693;SDS011;27377;50.666;9.150;2024-03-25T16:26:00;6.05;;;1.80;;
41693;SDS011;27377;50.666;9.150;2024-03-25T16:28:44;5.27;;;1.50;;